Time;durP1;ratioP1;P1;durP2;ratioP2;P2;SDS_P1;SDS_P2;PMS_P1;PMS_P2;Temp;Humidity;BMP_temperature;BMP_pressure;BME280_temperature;BME280_humidity;BME280_pressure;Samples;Min_cycle;Max_cycle;Signal;HPM_P1;HPM_P2
2023/06/10 01:24:20;;;;;;;3.72;3.42;;;;;;;19.02;52.50;96334.69;5729823;23;20055;-79
2023/06/10 01:57:37;;;;;;;4.68;4.00;;;;;;;18.52;53.83;96334.41;5007496;28;20046;-77
2023/06/10 02:00:19;;;;;;;5.03;4.57;;;;;;;18.49;54.12;96348.09;5018295;28;20089;-77
2023/06/10 02:03:10;;;;;;;4.55;4.15;;;;;;;18.45;54.64;96346.94;5019630;28;20037;-78
2023/06/10 02:08:35;;;;;;;4.57;4.18;;;;;;;18.26;54.49;96343.72;4973896;28;20062;-77
2023/06/10 02:11:03;;;;;;;5.35;4.32;;;;;;;18.17;54.84;96345.16;4975730;28;20137;-77
2023/06/10 02:13:32;;;;;;;5.22;4.18;;;;;;;18.11;55.12;96346.09;4975437;28;20153;-76
2023/06/10 02:16:00;;;;;;;5.00;4.55;;;;;;;18.06;55.00;96344.16;4975503;28;20569;-76
2023/06/10 02:18:27;;;;;;;4.65;4.22;;;;;;;18.02;55.44;96343.03;4956182;29;20063;-77
2023/06/10 02:20:55;;;;;;;4.15;3.78;;;;;;;18.06;56.66;96351.25;4956126;29;20051;-77
2023/06/10 02:23:23;;;;;;;4.18;3.78;;;;;;;18.11;56.24;96346.88;4955969;29;20098;-76
2023/06/10 02:25:51;;;;;;;4.93;4.47;;;;;;;18.16;55.64;96345.38;4956082;29;20090;-76
2023/06/10 02:28:18;;;;;;;4.40;4.00;;;;;;;18.15;55.65;96338.47;4955951;28;20047;-78
2023/06/10 02:30:47;;;;;;;5.00;4.20;;;;;;;18.16;55.56;96340.91;4956093;29;20416;-76
2023/06/10 02:33:15;;;;;;;4.38;3.97;;;;;;;18.14;55.69;96334.25;4955744;29;20520;-76
2023/06/10 02:35:42;;;;;;;4.85;3.95;;;;;;;18.10;55.91;96341.84;4956209;29;20059;-76
2023/06/10 02:38:10;;;;;;;4.78;3.95;;;;;;;18.11;56.17;96335.53;4955902;28;20134;-77
2023/06/10 02:40:38;;;;;;;4.97;4.50;;;;;;;18.09;56.02;96348.97;4955876;29;20111;-76
2023/06/10 02:43:05;;;;;;;5.40;4.40;;;;;;;18.05;56.18;96339.91;4955704;29;20051;-77
2023/06/10 02:45:33;;;;;;;7.18;4.57;;;;;;;18.02;56.37;96358.84;4955621;29;20138;-77
2023/06/10 02:48:02;;;;;;;4.30;3.90;;;;;;;17.97;56.74;96350.81;4955909;28;20051;-77
2023/06/10 02:50:29;;;;;;;4.88;4.18;;;;;;;17.97;56.60;96357.94;4955921;29;20082;-76
2023/06/10 02:52:57;;;;;;;4.97;4.50;;;;;;;17.95;56.90;96358.19;4955610;29;20083;-76
2023/06/10 02:55:26;;;;;;;4.88;4.45;;;;;;;17.95;57.17;96362.66;4955360;29;20055;-76
2023/06/10 02:57:54;;;;;;;4.72;4.32;;;;;;;17.95;56.92;96371.41;4955846;28;20093;-76
2023/06/10 03:00:22;;;;;;;5.53;4.50;;;;;;;17.89;57.04;96365.19;4955205;29;20072;-77
2023/06/10 03:02:50;;;;;;;5.18;4.53;;;;;;;17.81;57.46;96365.53;4955490;29;20496;-77
2023/06/10 03:05:19;;;;;;;5.15;3.90;;;;;;;17.78;57.75;96359.94;4955227;29;20051;-76
2023/06/10 03:07:47;;;;;;;5.13;4.63;;;;;;;17.77;57.54;96366.22;4955191;28;20051;-77
2023/06/10 03:10:15;;;;;;;5.72;4.80;;;;;;;17.74;57.96;96361.44;4955629;28;20055;-77
2023/06/10 03:12:43;;;;;;;5.65;4.57;;;;;;;17.69;57.93;96357.66;4955311;29;20074;-77
2023/06/10 03:15:11;;;;;;;5.05;4.53;;;;;;;17.66;58.16;96360.75;4955616;29;20137;-77
2023/06/10 03:17:39;;;;;;;5.85;5.25;;;;;;;17.63;58.23;96371.75;4968891;28;20047;-77
2023/06/10 03:20:10;;;;;;;4.93;4.10;;;;;;;17.63;58.38;96366.50;4968306;29;20051;-77
2023/06/10 03:22:39;;;;;;;4.93;4.43;;;;;;;17.61;58.43;96367.75;4960771;28;20134;-76
2023/06/10 03:25:13;;;;;;;5.43;4.93;;;;;;;17.61;58.44;96371.19;4974813;28;20162;-77
2023/06/10 03:27:43;;;;;;;6.88;5.13;;;;;;;17.61;58.31;96363.28;4974475;28;20051;-76
2023/06/10 03:30:12;;;;;;;5.13;4.63;;;;;;;17.55;58.41;96372.13;4974319;28;20138;-76
2023/06/10 03:32:40;;;;;;;5.15;4.63;;;;;;;17.49;58.64;96375.66;4974178;28;20047;-76
2023/06/10 03:35:09;;;;;;;5.63;4.90;;;;;;;17.43;58.68;96381.88;4973948;28;20074;-76
2023/06/10 03:37:38;;;;;;;6.68;4.72;;;;;;;17.39;59.19;96381.53;4974530;28;20489;-76
2023/06/10 03:40:08;;;;;;;6.32;5.25;;;;;;;17.35;59.20;96376.94;4974253;28;20107;-77
2023/06/10 03:42:35;;;;;;;5.93;5.00;;;;;;;17.33;59.58;96376.38;4974364;28;20059;-77
2023/06/10 03:45:04;;;;;;;4.70;4.30;;;;;;;17.36;59.69;96382.00;4974093;28;20051;-76
2023/06/10 03:47:34;;;;;;;4.75;4.35;;;;;;;17.41;60.03;96386.59;4973863;28;20050;-76
2023/06/10 03:50:03;;;;;;;5.00;4.60;;;;;;;17.42;59.11;96380.25;4973907;28;20510;-77
2023/06/10 03:52:30;;;;;;;5.28;4.20;;;;;;;17.37;59.42;96385.44;4973760;28;20055;-77
2023/06/10 03:54:59;;;;;;;5.70;4.93;;;;;;;17.29;59.54;96386.56;4973867;28;20492;-76
2023/06/10 03:57:27;;;;;;;6.00;5.15;;;;;;;17.25;59.50;96388.88;4973687;28;20061;-76
2023/06/10 03:59:55;;;;;;;6.90;5.20;;;;;;;17.21;59.84;96387.72;4973743;28;20478;-77
2023/06/10 04:02:23;;;;;;;5.18;4.68;;;;;;;17.19;60.04;96392.44;4973816;28;20050;-76
2023/06/10 04:04:51;;;;;;;5.65;4.90;;;;;;;17.19;60.14;96392.44;4973471;28;20059;-76
2023/06/10 04:07:20;;;;;;;5.15;4.63;;;;;;;17.21;59.88;96395.63;4973359;28;20047;-76
2023/06/10 04:09:47;;;;;;;5.80;5.28;;;;;;;17.20;59.97;96394.03;4974018;28;20463;-76
2023/06/10 04:12:16;;;;;;;5.63;5.13;;;;;;;17.20;60.45;96387.94;4973679;28;20422;-76
2023/06/10 04:14:44;;;;;;;5.28;4.78;;;;;;;17.21;60.15;96390.38;4973517;28;20104;-76
2023/06/10 04:17:11;;;;;;;5.63;5.13;;;;;;;17.22;60.27;96394.59;4973755;28;20054;-76
2023/06/10 04:19:39;;;;;;;5.95;5.15;;;;;;;17.23;60.27;96398.84;4973795;28;20053;-77
2023/06/10 04:22:07;;;;;;;4.80;4.40;;;;;;;17.27;61.04;96400.00;4973003;28;20074;-77
2023/06/10 04:24:35;;;;;;;5.57;4.88;;;;;;;17.33;60.73;96402.75;4973678;28;20113;-76
2023/06/10 04:27:03;;;;;;;6.07;5.47;;;;;;;17.35;60.55;96395.41;4973204;28;20057;-76
2023/06/10 04:29:32;;;;;;;6.47;5.30;;;;;;;17.37;60.69;96403.91;4973372;28;20077;-76
2023/06/10 04:32:00;;;;;;;6.32;5.03;;;;;;;17.39;60.52;96401.84;4973193;28;20571;-76
2023/06/10 04:34:27;;;;;;;6.50;5.60;;;;;;;17.42;60.73;96407.44;4973167;28;20102;-76
2023/06/10 04:36:55;;;;;;;5.97;5.40;;;;;;;17.47;60.55;96409.38;4973178;28;20059;-76
2023/06/10 04:39:23;;;;;;;4.35;3.95;;;;;;;17.52;61.07;96406.06;4973224;28;20073;-76
2023/06/10 04:41:50;;;;;;;4.75;4.35;;;;;;;17.59;60.76;96404.91;4973267;28;20106;-77
2023/06/10 04:44:18;;;;;;;5.22;4.75;;;;;;;17.65;60.39;96406.63;4973288;28;20046;-76
2023/06/10 04:46:47;;;;;;;5.95;5.35;;;;;;;17.70;60.54;96412.00;4972892;28;20042;-76
2023/06/10 04:49:15;;;;;;;5.53;4.90;;;;;;;17.74;60.46;96409.72;4973209;28;20055;-77
2023/06/10 04:51:43;;;;;;;5.95;5.22;;;;;;;17.78;60.50;96404.78;4973120;28;20058;-77
2023/06/10 04:54:10;;;;;;;4.15;3.75;;;;;;;17.83;61.01;96399.63;4973392;28;20102;-76
2023/06/10 04:56:39;;;;;;;10.30;5.40;;;;;;;17.91;60.43;96404.56;4972753;28;20054;-77
2023/06/10 04:59:06;;;;;;;5.13;4.63;;;;;;;18.01;60.02;96399.47;4973044;28;20062;-76
2023/06/10 05:01:34;;;;;;;5.03;4.60;;;;;;;18.09;60.09;96407.03;4973356;28;20062;-76
2023/06/10 05:04:04;;;;;;;4.55;4.15;;;;;;;18.18;60.10;96404.03;4973210;28;20047;-76
2023/06/10 05:06:32;;;;;;;5.57;4.40;;;;;;;18.23;59.81;96401.47;4972837;28;20082;-77
2023/06/10 05:08:59;;;;;;;5.45;4.93;;;;;;;18.28;59.65;96409.50;4972931;28;20046;-77
2023/06/10 05:11:27;;;;;;;5.00;4.50;;;;;;;18.33;59.93;96404.31;4972884;28;20482;-77
2023/06/10 05:13:55;;;;;;;5.60;5.10;;;;;;;18.38;59.78;96414.97;4973017;28;20122;-77
2023/06/10 05:16:22;;;;;;;6.45;5.80;;;;;;;18.39;59.75;96413.13;4973057;28;20145;-77
2023/06/10 05:18:51;;;;;;;6.60;5.13;;;;;;;18.36;59.99;96406.47;4972879;28;20051;-77
2023/06/10 05:21:21;;;;;;;6.18;5.57;;;;;;;18.33;60.29;96417.53;4972671;28;20506;-77
2023/06/10 05:23:48;;;;;;;5.70;5.07;;;;;;;18.33;60.41;96412.25;4972885;28;20055;-77
2023/06/10 05:26:17;;;;;;;5.57;4.93;;;;;;;18.36;60.44;96414.41;4972919;28;20053;-77
2023/06/10 05:28:45;;;;;;;6.13;5.57;;;;;;;18.38;60.62;96409.69;4972885;28;20503;-77
2023/06/10 05:31:12;;;;;;;6.45;5.55;;;;;;;18.39;60.87;96413.94;4973115;28;20090;-77
2023/06/10 05:33:40;;;;;;;9.05;5.63;;;;;;;18.40;60.74;96412.09;4972820;28;20047;-77
2023/06/10 05:36:08;;;;;;;5.47;4.97;;;;;;;18.43;60.80;96412.44;4984183;28;20051;-77
2023/06/10 05:38:36;;;;;;;6.07;4.68;;;;;;;18.48;60.91;96415.16;4986897;28;20114;-77
2023/06/10 05:41:04;;;;;;;5.30;4.80;;;;;;;18.53;60.90;96415.25;4986684;28;20077;-77
2023/06/10 05:43:32;;;;;;;5.72;5.22;;;;;;;18.58;60.84;96413.75;4979570;28;20058;-77
2023/06/10 05:45:59;;;;;;;5.30;4.78;;;;;;;18.63;60.92;96421.75;4977205;28;20426;-77
2023/06/10 05:48:27;;;;;;;6.20;5.60;;;;;;;18.66;61.13;96413.38;4976777;28;20055;-77
2023/06/10 05:50:54;;;;;;;5.90;5.32;;;;;;;18.68;61.16;96417.38;4978043;28;20078;-77
2023/06/10 05:53:22;;;;;;;6.03;5.15;;;;;;;18.74;61.15;96412.97;4977981;28;20055;-77
2023/06/10 05:55:52;;;;;;;5.72;5.10;;;;;;;18.82;61.17;96417.88;4979565;28;20142;-77
2023/06/10 05:58:20;;;;;;;5.82;5.25;;;;;;;18.89;60.95;96410.63;4983216;28;20427;-76
2023/06/10 06:00:48;;;;;;;6.18;4.85;;;;;;;18.96;60.93;96405.19;4985679;28;20050;-76
2023/06/10 06:03:16;;;;;;;5.45;4.95;;;;;;;19.05;60.75;96402.94;4984978;28;20047;-76
2023/06/10 06:05:45;;;;;;;28.77;18.42;;;;;;;19.13;60.64;96405.16;4976411;28;20055;-76
2023/06/10 06:08:17;;;;;;;8.82;7.72;;;;;;;19.22;60.31;96414.31;4975997;28;20089;-76
2023/06/10 06:10:45;;;;;;;4.97;4.50;;;;;;;19.32;59.70;96409.16;4976176;28;20055;-76
2023/06/10 06:13:14;;;;;;;5.20;4.70;;;;;;;19.41;58.94;96406.13;4980413;28;20051;-76
2023/06/10 06:15:42;;;;;;;5.65;5.07;;;;;;;19.48;58.42;96406.75;4991705;28;20046;-76
2023/06/10 06:18:09;;;;;;;4.65;4.22;;;;;;;19.55;58.30;96410.03;4987648;28;20138;-76
2023/06/10 06:20:37;;;;;;;5.90;5.30;;;;;;;19.62;58.23;96408.00;4976901;28;20057;-76
2023/06/10 06:23:04;;;;;;;5.05;4.55;;;;;;;19.70;58.15;96406.81;4976728;28;20113;-77
2023/06/10 06:25:33;;;;;;;7.88;5.03;;;;;;;19.82;57.90;96417.31;4975683;28;20594;-76
2023/06/10 06:28:00;;;;;;;6.35;5.07;;;;;;;19.89;57.47;96415.28;4976065;28;20073;-77
2023/06/10 06:30:29;;;;;;;6.57;4.93;;;;;;;19.98;57.49;96416.44;4975896;28;20126;-76
2023/06/10 06:32:57;;;;;;;5.60;4.90;;;;;;;20.06;57.17;96415.22;4976129;28;20046;-76
2023/06/10 06:35:24;;;;;;;5.45;4.95;;;;;;;20.15;56.96;96414.53;4975370;28;20113;-77
2023/06/10 06:37:52;;;;;;;5.68;4.65;;;;;;;20.24;57.03;96414.91;4975466;28;20082;-76
2023/06/10 06:40:19;;;;;;;5.80;5.20;;;;;;;20.32;56.72;96414.47;4975571;28;20521;-76
2023/06/10 06:42:47;;;;;;;5.97;5.18;;;;;;;20.39;56.67;96411.63;4975585;28;20055;-76
2023/06/10 06:45:15;;;;;;;5.10;4.65;;;;;;;20.48;56.03;96419.94;4974679;28;20137;-76
2023/06/10 06:47:43;;;;;;;5.32;4.82;;;;;;;20.56;55.58;96424.78;4975410;28;20050;-76
2023/06/10 06:50:11;;;;;;;5.38;4.88;;;;;;;20.64;55.35;96423.56;4975549;28;20051;-76
2023/06/10 06:52:39;;;;;;;9.98;6.82;;;;;;;20.69;54.49;96429.72;4975678;28;20046;-76
2023/06/10 06:55:07;;;;;;;7.93;5.82;;;;;;;20.74;54.41;96428.97;4975238;28;20130;-76
2023/06/10 06:57:36;;;;;;;4.78;4.32;;;;;;;20.80;53.77;96414.72;4975016;28;20050;-76
2023/06/10 07:00:04;;;;;;;5.25;4.43;;;;;;;20.86;53.43;96426.16;4974983;28;20058;-77
2023/06/10 07:02:33;;;;;;;4.47;4.07;;;;;;;20.95;53.09;96420.16;4975067;28;20129;-76
2023/06/10 07:05:03;;;;;;;5.30;4.72;;;;;;;21.03;52.65;96420.72;4975071;28;20105;-77
2023/06/10 07:07:31;;;;;;;6.03;4.15;;;;;;;21.10;52.69;96421.31;4974859;28;20088;-76
2023/06/10 07:09:58;;;;;;;4.70;4.30;;;;;;;21.18;52.56;96431.47;4975553;28;20054;-78
2023/06/10 07:12:26;;;;;;;4.57;4.10;;;;;;;21.26;51.88;96428.34;4975181;28;20098;-76
2023/06/10 07:14:53;;;;;;;7.00;5.00;;;;;;;21.34;51.52;96430.56;4974698;28;20047;-76
2023/06/10 07:17:21;;;;;;;4.40;4.00;;;;;;;21.42;51.31;96429.28;4974874;28;20098;-76
2023/06/10 07:19:49;;;;;;;5.15;4.28;;;;;;;21.49;51.58;96434.38;4974815;28;20142;-76
2023/06/10 07:22:18;;;;;;;4.47;4.07;;;;;;;21.58;51.45;96433.66;4974837;28;20054;-76
2023/06/10 07:24:45;;;;;;;4.65;4.25;;;;;;;21.66;51.38;96429.72;4974412;28;20082;-77
2023/06/10 07:27:13;;;;;;;5.35;4.07;;;;;;;;;;4974140;28;20104;-77
2023/06/10 07:29:40;;;;;;;4.45;4.05;;;;;;;21.81;50.58;96437.75;4974489;28;20050;-77
2023/06/10 07:32:09;;;;;;;4.45;3.97;;;;;;;21.91;50.43;96431.72;4974255;28;20047;-77
2023/06/10 07:34:36;;;;;;;4.28;3.85;;;;;;;21.98;50.41;96437.59;4974108;28;20105;-77
2023/06/10 07:37:05;;;;;;;5.30;4.00;;;;;;;22.09;49.66;96427.81;4973683;28;20082;-77
2023/06/10 07:39:33;;;;;;;4.30;3.90;;;;;;;22.19;49.44;96433.19;4974122;28;20074;-77
2023/06/10 07:42:01;;;;;;;5.00;4.50;;;;;;;22.27;49.14;96423.91;4975100;28;20050;-78
2023/06/10 07:44:29;;;;;;;4.60;4.00;;;;;;;22.35;49.17;96430.59;4974811;28;20122;-77
2023/06/10 07:46:58;;;;;;;6.45;4.30;;;;;;;22.44;49.14;96431.69;4974078;28;20515;-77
2023/06/10 07:49:25;;;;;;;4.10;3.78;;;;;;;22.51;48.05;96434.88;4974185;28;20101;-77
2023/06/10 07:51:55;;;;;;;3.92;3.22;;;;;;;22.55;47.38;96425.34;4973994;28;20046;-78
2023/06/10 07:54:22;;;;;;;4.20;3.90;;;;;;;22.62;47.00;96430.41;4973946;28;20097;-77
2023/06/10 07:56:52;;;;;;;3.65;3.33;;;;;;;22.65;47.04;96431.72;4973400;28;20101;-77
2023/06/10 07:59:20;;;;;;;4.95;4.50;;;;;;;22.71;46.84;96423.50;4974210;28;20054;-77
2023/06/10 08:01:47;;;;;;;3.83;3.47;;;;;;;22.76;47.01;96431.50;4973825;28;20051;-77
2023/06/10 08:04:15;;;;;;;3.92;3.63;;;;;;;22.81;47.26;96423.53;4973878;28;20047;-77
2023/06/10 08:20:32;;;;;;;4.38;4.03;;;;;;;23.42;45.72;96433.41;5269734;23;20069;-83
2023/06/10 08:23:27;;;;;;;3.95;3.65;;;;;;;23.53;45.59;96436.88;5487280;23;20034;-80
2023/06/10 08:28:32;;;;;;;3.97;3.67;;;;;;;23.62;45.81;96437.13;5018491;23;20046;-80
2023/06/10 08:33:53;;;;;;;3.90;3.60;;;;;;;23.72;45.64;96430.97;5215752;23;20054;-80
2023/06/10 08:36:27;;;;;;;5.50;4.55;;;;;;;23.79;45.16;96440.31;5018737;28;20049;-80
2023/06/10 08:38:57;;;;;;;6.70;5.10;;;;;;;23.84;45.24;96434.16;4999270;28;20062;-79
2023/06/10 08:41:29;;;;;;;5.82;5.30;;;;;;;23.91;45.28;96431.22;4999058;28;20035;-80
2023/06/10 08:46:38;;;;;;;4.72;4.32;;;;;;;24.08;45.35;96444.22;5483260;23;20038;-81
2023/06/10 08:49:09;;;;;;;5.35;4.40;;;;;;;24.17;45.26;96438.03;5018503;28;20081;-83
2023/06/10 09:03:34;;;;;;;4.93;4.53;;;;;;;24.59;44.23;96428.81;5139352;23;20038;-82
2023/06/10 11:43:25;;;;;;;3.10;2.90;;;;;;;26.64;36.65;96389.44;5152504;23;20041;-83
2023/06/10 18:27:26;;;;;;;4.75;3.30;;;;;;;23.78;54.61;96408.59;4947782;28;20096;-81
2023/06/10 18:32:36;;;;;;;3.72;3.40;;;;;;;23.56;53.64;96414.22;5195471;23;20043;-81
